Terminal Aerodrome Forecast
Issued by NWS Tampa Bay Area, FL

Home | Current Version | Previous Version | Text Only | Print | Product List | Glossary On
Versions: 1 2 3 4 5 6 7 8 9 10 11 12 13 14 15 16 17 18 19 20 21 22 23 24 25 26
706
FTUS42 KTBW 032105 AAA
TAFTPA
TAF AMD
KTPA 032105Z 0321/0418 08010KT P6SM FEW250
     FM040200 10006KT P6SM SCT250
     FM041500 12012G20KT P6SM BKN250=

USA.gov is the U.S. government's official web portal to all federal, state and local government web resources and services.